Time;durP1;ratioP1;P1;durP2;ratioP2;P2;SDS_P1;SDS_P2;PMS_P1;PMS_P2;Temp;Humidity;BMP_temperature;BMP_pressure;BME280_temperature;BME280_humidity;BME280_pressure;Samples;Min_cycle;Max_cycle;Signal;HPM_P1;HPM_P2
2022/09/09 00:01:57;;;;;;;0.40;0.40;;;14.90;99.90;;;;;;5075266;27;20042;-82
2022/09/09 00:04:29;;;;;;;0.50;0.50;;;14.80;99.90;;;;;;5052325;27;20054;-81
2022/09/09 00:06:54;;;;;;;0.40;0.40;;;14.90;99.90;;;;;;5073820;27;20084;-82
2022/09/09 00:09:24;;;;;;;0.40;0.40;;;14.90;99.90;;;;;;5090156;27;20134;-82
2022/09/09 00:13:00;;;;;;;0.50;0.50;;;14.80;99.90;;;;;;5070154;27;20058;-82
2022/09/09 00:15:35;;;;;;;0.50;0.50;;;14.80;99.90;;;;;;4941894;28;20136;-82
2022/09/09 00:18:33;;;;;;;0.50;0.50;;;14.80;99.90;;;;;;5052559;27;20107;-82
2022/09/09 00:21:07;;;;;;;0.40;0.40;;;14.80;99.90;;;;;;5086059;27;20074;-82
2022/09/09 00:23:39;;;;;;;0.40;0.40;;;14.70;99.90;;;;;;5072154;27;20128;-83
2022/09/09 00:26:30;;;;;;;0.47;0.47;;;14.70;99.90;;;;;;5068891;27;20049;-82
2022/09/09 00:29:08;;;;;;;0.40;0.40;;;14.60;99.90;;;;;;5089371;27;20054;-83
2022/09/09 00:31:34;;;;;;;0.45;0.45;;;14.50;99.90;;;;;;5070089;27;20093;-82
2022/09/09 00:34:13;;;;;;;0.50;0.50;;;14.60;99.90;;;;;;5071198;27;20558;-82
2022/09/09 00:36:41;;;;;;;0.40;0.40;;;14.70;99.90;;;;;;5073400;27;20047;-82
2022/09/09 00:39:15;;;;;;;0.40;0.40;;;14.80;99.90;;;;;;5067623;27;20047;-82
2022/09/09 00:42:02;;;;;;;0.50;0.50;;;14.70;99.90;;;;;;5090623;27;20908;-82
2022/09/09 00:44:30;;;;;;;0.47;0.47;;;14.80;99.90;;;;;;5069237;27;20050;-83
2022/09/09 00:47:11;;;;;;;0.50;0.50;;;14.80;99.90;;;;;;5068898;27;20113;-83
2022/09/09 00:50:08;;;;;;;0.50;0.50;;;14.80;99.90;;;;;;5069593;27;20607;-82
2022/09/09 00:52:49;;;;;;;0.45;0.45;;;14.80;99.90;;;;;;5092169;27;20729;-83
2022/09/09 00:55:25;;;;;;;0.50;0.50;;;14.90;99.90;;;;;;5075352;27;20100;-83
2022/09/09 00:58:00;;;;;;;0.40;0.40;;;15.00;99.90;;;;;;5093383;27;20050;-87
2022/09/09 01:00:38;;;;;;;0.50;0.50;;;14.90;99.90;;;;;;5055874;27;20039;-85
2022/09/09 01:03:19;;;;;;;0.50;0.50;;;15.00;99.90;;;;;;5054559;27;20125;-85
2022/09/09 01:05:53;;;;;;;0.40;0.40;;;14.90;99.90;;;;;;5070069;28;20043;-87
2022/09/09 01:08:51;;;;;;;0.50;0.50;;;15.00;99.90;;;;;;5066903;28;20043;-86
2022/09/09 01:11:43;;;;;;;0.47;0.47;;;15.00;99.90;;;;;;5046408;27;20085;-88
2022/09/09 01:14:34;;;;;;;0.40;0.40;;;15.00;99.90;;;;;;5051520;28;20122;-88
2022/09/09 01:17:23;;;;;;;0.50;0.50;;;15.00;99.90;;;;;;5053839;28;20051;-89
2022/09/09 01:20:04;;;;;;;0.50;0.50;;;15.00;99.90;;;;;;5062182;28;20063;-91
2022/09/09 01:22:30;;;;;;;0.50;0.50;;;15.00;99.90;;;;;;5061069;28;20112;-88
2022/09/09 01:25:21;;;;;;;0.50;0.50;;;15.00;99.90;;;;;;5076227;28;20063;-90
2022/09/09 01:27:52;;;;;;;0.52;0.52;;;15.00;99.90;;;;;;5057359;28;20134;-88
2022/09/09 01:30:18;;;;;;;0.50;0.50;;;15.00;99.90;;;;;;5066953;28;20514;-90
2022/09/09 01:32:47;;;;;;;0.50;0.50;;;15.00;99.90;;;;;;5065081;28;20534;-90
2022/09/09 01:35:26;;;;;;;0.50;0.50;;;15.00;99.90;;;;;;5064821;28;21004;-90
2022/09/09 01:37:52;;;;;;;0.50;0.50;;;15.00;99.90;;;;;;5079100;28;20047;-90
2022/09/09 01:40:18;;;;;;;0.50;0.50;;;14.90;99.90;;;;;;5046640;28;20467;-92
2022/09/09 01:42:44;;;;;;;0.50;0.50;;;14.90;99.90;;;;;;5010863;28;20062;-90
2022/09/09 01:45:10;;;;;;;0.50;0.50;;;14.80;99.90;;;;;;5010807;28;20048;-89
2022/09/09 01:47:36;;;;;;;0.50;0.50;;;14.80;99.90;;;;;;5041359;28;20064;-92
2022/09/09 01:50:02;;;;;;;0.50;0.50;;;14.80;99.90;;;;;;5049773;28;20813;-91
2022/09/09 01:52:32;;;;;;;0.50;0.50;;;14.80;99.90;;;;;;5040287;28;20050;-91
2022/09/09 01:54:58;;;;;;;0.50;0.50;;;14.90;99.90;;;;;;5028057;28;20504;-90
2022/09/09 01:57:31;;;;;;;0.50;0.50;;;14.80;99.90;;;;;;5043501;28;20109;-90
2022/09/09 02:00:05;;;;;;;0.50;0.50;;;14.80;99.90;;;;;;5038172;28;20070;-90
2022/09/09 02:03:15;;;;;;;0.50;0.50;;;14.80;99.90;;;;;;5044680;28;20040;-92
2022/09/09 02:05:49;;;;;;;0.50;0.50;;;14.70;99.90;;;;;;4994328;28;20052;-93
2022/09/09 02:08:23;;;;;;;0.50;0.50;;;14.70;99.90;;;;;;5044455;28;20791;-90
2022/09/09 02:11:00;;;;;;;0.50;0.50;;;14.70;99.90;;;;;;5057407;28;20155;-89
2022/09/09 02:13:26;;;;;;;0.50;0.50;;;14.70;99.90;;;;;;5054357;28;20118;-89
2022/09/09 02:16:15;;;;;;;0.60;0.60;;;14.70;99.90;;;;;;5040356;28;20055;-89
2022/09/09 02:19:06;;;;;;;0.50;0.50;;;14.80;99.90;;;;;;5038719;28;20145;-88
2022/09/09 02:21:34;;;;;;;0.50;0.50;;;14.80;99.90;;;;;;5039020;28;20051;-88
2022/09/09 02:24:05;;;;;;;0.45;0.45;;;14.80;99.90;;;;;;5026711;28;20108;-88
2022/09/09 02:26:33;;;;;;;0.50;0.50;;;14.80;99.90;;;;;;5040712;28;20446;-87
2022/09/09 02:29:02;;;;;;;0.60;0.60;;;14.80;99.90;;;;;;5059779;28;20955;-88
2022/09/09 02:31:28;;;;;;;0.50;0.50;;;14.80;99.90;;;;;;5041755;28;20047;-90
2022/09/09 02:34:00;;;;;;;0.50;0.50;;;14.80;99.90;;;;;;5023829;28;20498;-89
2022/09/09 02:36:33;;;;;;;0.50;0.50;;;14.90;99.90;;;;;;5054011;28;20039;-85
2022/09/09 02:38:59;;;;;;;0.50;0.50;;;14.80;99.90;;;;;;5035685;28;20052;-86
2022/09/09 02:41:38;;;;;;;0.50;0.50;;;14.80;99.90;;;;;;5055321;28;20050;-85
2022/09/09 02:44:17;;;;;;;0.50;0.50;;;14.80;99.90;;;;;;5053055;28;20117;-85
2022/09/09 02:46:58;;;;;;;0.50;0.50;;;14.80;99.90;;;;;;5050687;28;20067;-86
2022/09/09 02:50:02;;;;;;;0.50;0.50;;;14.80;99.90;;;;;;5028575;28;20045;-85
2022/09/09 02:52:47;;;;;;;0.60;0.60;;;14.80;99.90;;;;;;5059250;28;20748;-86
2022/09/09 02:55:40;;;;;;;0.50;0.50;;;14.80;99.90;;;;;;5053606;28;20498;-87
2022/09/09 02:58:11;;;;;;;0.50;0.50;;;14.80;99.90;;;;;;5040148;28;20046;-87
2022/09/09 03:00:38;;;;;;;0.40;0.40;;;14.90;99.90;;;;;;5029121;28;20051;-87
2022/09/09 03:03:06;;;;;;;0.50;0.50;;;14.90;99.90;;;;;;5035626;28;20039;-86
2022/09/09 03:05:32;;;;;;;0.50;0.50;;;14.70;99.90;;;;;;5052876;28;20047;-86
2022/09/09 03:07:58;;;;;;;0.50;0.50;;;14.70;99.90;;;;;;5036647;28;20055;-86
2022/09/09 03:10:24;;;;;;;0.50;0.50;;;14.70;99.90;;;;;;5055598;28;20079;-85
2022/09/09 03:12:50;;;;;;;0.50;0.50;;;14.70;99.90;;;;;;5054693;28;20556;-86
2022/09/09 03:15:16;;;;;;;0.50;0.50;;;14.70;99.90;;;;;;5041476;28;20062;-86
2022/09/09 03:17:42;;;;;;;0.50;0.50;;;14.70;99.90;;;;;;5017296;28;20043;-86
2022/09/09 03:20:08;;;;;;;0.50;0.50;;;14.70;99.90;;;;;;5020476;28;20550;-87
2022/09/09 03:22:34;;;;;;;0.50;0.50;;;14.70;99.90;;;;;;5050846;28;20101;-88
2022/09/09 03:25:02;;;;;;;0.50;0.50;;;14.70;99.90;;;;;;5035375;28;20801;-87
2022/09/09 03:27:29;;;;;;;0.50;0.50;;;14.70;99.90;;;;;;5036778;28;20043;-88
2022/09/09 03:29:55;;;;;;;0.50;0.50;;;14.70;99.90;;;;;;5037951;28;20051;-88
2022/09/09 03:32:22;;;;;;;0.40;0.40;;;14.70;99.90;;;;;;5042088;28;20121;-88
2022/09/09 03:34:49;;;;;;;0.50;0.50;;;14.80;99.90;;;;;;5057996;28;20079;-89
2022/09/09 03:37:17;;;;;;;0.50;0.50;;;14.70;99.90;;;;;;5024845;28;20040;-88
2022/09/09 03:39:43;;;;;;;0.50;0.50;;;14.70;99.90;;;;;;5024948;28;20116;-88
2022/09/09 03:42:09;;;;;;;0.50;0.50;;;14.80;99.90;;;;;;5022362;28;20803;-88
2022/09/09 03:44:35;;;;;;;0.43;0.43;;;14.80;99.90;;;;;;5022376;28;20040;-88
2022/09/09 03:47:01;;;;;;;0.50;0.50;;;14.70;99.90;;;;;;5021674;28;20316;-88
2022/09/09 03:49:28;;;;;;;0.50;0.50;;;14.70;99.90;;;;;;5021507;28;20071;-88
2022/09/09 03:51:56;;;;;;;0.57;0.57;;;14.80;99.90;;;;;;5030223;28;20043;-90
2022/09/09 03:54:23;;;;;;;0.50;0.50;;;14.70;99.90;;;;;;5052604;28;20952;-90
2022/09/09 03:56:49;;;;;;;0.50;0.50;;;14.80;99.90;;;;;;5055665;28;20058;-90
2022/09/09 03:59:15;;;;;;;0.50;0.50;;;14.70;99.90;;;;;;5038783;28;20039;-90
2022/09/09 04:01:41;;;;;;;0.50;0.50;;;14.80;99.90;;;;;;5021559;28;20206;-91
2022/09/09 04:04:08;;;;;;;0.50;0.50;;;14.70;99.90;;;;;;5036468;28;20074;-91
2022/09/09 04:06:35;;;;;;;0.47;0.47;;;14.80;99.90;;;;;;5022720;28;20047;-93
2022/09/09 04:09:03;;;;;;;0.50;0.50;;;14.70;99.90;;;;;;5040664;28;20096;-91
2022/09/09 04:11:29;;;;;;;0.43;0.43;;;14.70;99.90;;;;;;5067003;28;20043;-91
2022/09/09 04:13:55;;;;;;;0.50;0.50;;;14.70;99.90;;;;;;5058986;28;20101;-94
2022/09/09 04:16:23;;;;;;;0.50;0.50;;;14.70;99.90;;;;;;5058337;28;20055;-94
2022/09/09 04:18:57;;;;;;;0.50;0.50;;;14.70;99.90;;;;;;5058693;28;20043;-93
2022/09/09 04:21:23;;;;;;;0.50;0.50;;;14.70;99.90;;;;;;5041895;28;20118;-94
2022/09/09 04:23:49;;;;;;;0.50;0.50;;;14.70;99.90;;;;;;5060216;28;20127;-92
2022/09/09 04:26:25;;;;;;;0.45;0.45;;;14.70;99.90;;;;;;5028847;28;20073;-93
2022/09/09 04:28:50;;;;;;;0.50;0.50;;;14.70;99.90;;;;;;5060955;28;20154;-92
2022/09/09 04:31:23;;;;;;;0.50;0.50;;;14.70;99.90;;;;;;5059779;28;20475;-93
2022/09/09 04:33:54;;;;;;;0.50;0.50;;;14.60;99.90;;;;;;5052954;28;20071;-94
2022/09/09 04:36:23;;;;;;;0.50;0.50;;;14.60;99.90;;;;;;5059975;28;20066;-93
2022/09/09 04:38:49;;;;;;;0.50;0.50;;;14.60;99.90;;;;;;5066407;28;20248;-89
2022/09/09 04:41:16;;;;;;;0.50;0.50;;;14.50;99.90;;;;;;5058053;28;20073;-92
2022/09/09 04:43:42;;;;;;;0.50;0.50;;;14.50;99.90;;;;;;5056166;28;20232;-89
2022/09/09 04:46:09;;;;;;;0.50;0.50;;;14.50;99.90;;;;;;5054841;28;20365;-94
2022/09/09 04:48:34;;;;;;;0.50;0.50;;;14.60;99.90;;;;;;5052547;28;20400;-88
2022/09/09 04:51:10;;;;;;;0.40;0.40;;;14.60;99.90;;;;;;5026561;28;20099;-89
2022/09/09 04:53:37;;;;;;;0.50;0.50;;;14.60;99.90;;;;;;5043614;28;20059;-91
2022/09/09 04:56:09;;;;;;;0.50;0.50;;;14.50;99.90;;;;;;5058162;28;20039;-88
2022/09/09 04:58:36;;;;;;;0.50;0.50;;;14.50;99.90;;;;;;5031958;28;20067;-91
2022/09/09 05:01:24;;;;;;;0.50;0.50;;;14.40;99.90;;;;;;5053377;28;20116;-91
2022/09/09 05:03:51;;;;;;;0.50;0.50;;;14.40;99.90;;;;;;5035791;28;20052;-90
2022/09/09 05:06:19;;;;;;;0.50;0.50;;;14.40;99.90;;;;;;5044081;28;20062;-93
2022/09/09 05:08:45;;;;;;;0.50;0.50;;;14.30;99.90;;;;;;5036678;28;20052;-90
2022/09/09 05:11:16;;;;;;;0.50;0.50;;;14.30;99.90;;;;;;5041162;28;20035;-92
2022/09/09 05:13:42;;;;;;;0.50;0.50;;;14.30;99.90;;;;;;5059373;28;20104;-92
2022/09/09 05:16:10;;;;;;;0.50;0.50;;;14.10;99.90;;;;;;5065462;28;20036;-91
2022/09/09 05:18:40;;;;;;;0.50;0.50;;;14.10;99.90;;;;;;5029451;28;20417;-93
2022/09/09 05:21:06;;;;;;;0.50;0.50;;;14.10;99.90;;;;;;5048358;28;20048;-92
2022/09/09 05:23:33;;;;;;;0.50;0.50;;;14.00;99.90;;;;;;5029122;28;20495;-93
2022/09/09 05:26:00;;;;;;;0.40;0.40;;;13.90;99.90;;;;;;5053888;28;20059;-96
2022/09/09 05:28:26;;;;;;;0.50;0.50;;;14.00;99.90;;;;;;5050676;28;20395;-91
2022/09/09 05:31:00;;;;;;;0.50;0.50;;;14.10;99.90;;;;;;5049330;28;20495;-91
2022/09/09 05:33:27;;;;;;;0.50;0.50;;;15.00;99.90;;;;;;5074845;28;20725;-89
2022/09/09 05:36:07;;;;;;;0.50;0.50;;;15.50;99.90;;;;;;5058455;28;20786;-91
2022/09/09 05:38:34;;;;;;;0.50;0.50;;;15.80;99.90;;;;;;5059696;28;20115;-92
2022/09/09 05:41:02;;;;;;;0.50;0.50;;;16.40;99.90;;;;;;5060461;28;20070;-91
2022/09/09 05:43:29;;;;;;;0.47;0.47;;;17.10;99.90;;;;;;5065768;28;20043;-91
2022/09/09 05:46:09;;;;;;;0.40;0.40;;;17.70;99.90;;;;;;5065010;28;20224;-90
2022/09/09 05:48:40;;;;;;;0.50;0.50;;;17.90;99.90;;;;;;5040816;28;20040;-91
2022/09/09 05:51:17;;;;;;;0.50;0.50;;;17.00;99.90;;;;;;5034519;28;20048;-89
2022/09/09 05:53:44;;;;;;;0.40;0.40;;;16.60;99.90;;;;;;5044329;28;20048;-86
2022/09/09 05:56:22;;;;;;;0.43;0.43;;;16.50;99.90;;;;;;5059195;28;20047;-86
2022/09/09 05:58:49;;;;;;;0.40;0.40;;;16.20;99.90;;;;;;5053948;28;20372;-88
2022/09/09 06:01:16;;;;;;;0.40;0.40;;;15.90;99.90;;;;;;5069156;28;20430;-87
2022/09/09 06:03:44;;;;;;;0.50;0.50;;;15.90;99.90;;;;;;5054416;28;20202;-87
2022/09/09 06:06:12;;;;;;;0.47;0.47;;;15.70;99.90;;;;;;5069108;28;20513;-87
2022/09/09 06:08:40;;;;;;;0.40;0.40;;;15.60;99.90;;;;;;5054526;28;20776;-87
2022/09/09 06:11:08;;;;;;;0.47;0.47;;;15.70;99.90;;;;;;5060971;28;20480;-86
2022/09/09 06:13:35;;;;;;;0.40;0.40;;;15.70;99.90;;;;;;5053062;28;20814;-88
2022/09/09 06:16:01;;;;;;;0.50;0.50;;;15.70;99.90;;;;;;5069746;28;20817;-87
2022/09/09 06:18:27;;;;;;;0.40;0.40;;;15.70;99.90;;;;;;5052184;28;20051;-86
2022/09/09 06:20:57;;;;;;;0.40;0.40;;;15.70;99.90;;;;;;5070258;28;20384;-90
2022/09/09 06:23:24;;;;;;;0.40;0.40;;;15.70;99.90;;;;;;5044428;28;20059;-87
2022/09/09 06:25:50;;;;;;;0.50;0.50;;;15.60;99.90;;;;;;5075365;28;20053;-89
2022/09/09 06:28:24;;;;;;;0.40;0.40;;;15.70;99.90;;;;;;5040718;28;20172;-94
2022/09/09 06:31:00;;;;;;;0.50;0.50;;;15.60;99.90;;;;;;5029897;28;20051;-88
2022/09/09 06:33:30;;;;;;;0.50;0.50;;;15.70;99.90;;;;;;5030809;28;20134;-87
2022/09/09 06:35:56;;;;;;;0.40;0.40;;;15.70;99.90;;;;;;5072806;28;20492;-88
2022/09/09 06:38:23;;;;;;;0.50;0.50;;;15.60;99.90;;;;;;5058234;28;20555;-86
2022/09/09 06:40:58;;;;;;;0.40;0.40;;;15.70;99.90;;;;;;5056956;28;20040;-87
2022/09/09 06:43:24;;;;;;;0.50;0.50;;;15.60;99.90;;;;;;5096265;28;20044;-88
2022/09/09 06:46:09;;;;;;;0.40;0.40;;;15.70;99.90;;;;;;5067021;28;20079;-86
2022/09/09 06:48:36;;;;;;;0.40;0.40;;;15.70;99.90;;;;;;5067609;28;20043;-86
2022/09/09 06:51:06;;;;;;;0.40;0.40;;;15.70;99.90;;;;;;5049196;28;20082;-85
2022/09/09 06:53:36;;;;;;;0.40;0.40;;;15.70;99.90;;;;;;5073073;28;20118;-88
2022/09/09 06:56:23;;;;;;;0.50;0.50;;;15.60;99.90;;;;;;5052782;28;20603;-86
2022/09/09 06:58:52;;;;;;;0.40;0.40;;;15.60;99.90;;;;;;5056794;28;20224;-86
2022/09/09 07:01:23;;;;;;;0.40;0.40;;;15.70;99.90;;;;;;5070298;28;20047;-86
2022/09/09 07:03:52;;;;;;;0.50;0.50;;;15.70;99.90;;;;;;5072037;28;20040;-86
2022/09/09 07:06:24;;;;;;;0.40;0.40;;;15.80;99.90;;;;;;5070722;28;20564;-88
2022/09/09 07:08:54;;;;;;;0.40;0.40;;;15.90;99.90;;;;;;5051893;28;20062;-87
2022/09/09 07:11:22;;;;;;;0.40;0.40;;;16.00;99.90;;;;;;5065625;28;20489;-86
2022/09/09 07:13:48;;;;;;;0.50;0.50;;;16.10;99.90;;;;;;5061213;28;20110;-87
2022/09/09 07:16:19;;;;;;;0.50;0.50;;;16.40;99.90;;;;;;5068222;28;20046;-86
2022/09/09 07:18:44;;;;;;;0.40;0.40;;;16.70;99.90;;;;;;5052496;28;20051;-86
2022/09/09 07:21:12;;;;;;;0.50;0.50;;;16.70;99.90;;;;;;5067680;28;20058;-85
2022/09/09 07:23:39;;;;;;;0.40;0.40;;;16.80;99.90;;;;;;5070809;28;20442;-84
2022/09/09 07:26:13;;;;;;;0.50;0.50;;;16.70;99.90;;;;;;5034267;28;20760;-86
2022/09/09 07:28:41;;;;;;;0.50;0.50;;;16.70;99.90;;;;;;5055725;28;20040;-85
2022/09/09 07:31:13;;;;;;;0.40;0.40;;;17.10;99.90;;;;;;5067936;28;20043;-88
2022/09/09 07:33:40;;;;;;;0.50;0.50;;;17.20;99.90;;;;;;5068992;28;20580;-84
2022/09/09 07:36:10;;;;;;;0.50;0.50;;;17.40;99.90;;;;;;5066502;28;20054;-84
2022/09/09 07:38:40;;;;;;;0.40;0.40;;;17.30;99.90;;;;;;5086388;28;20051;-88
2022/09/09 07:41:11;;;;;;;0.50;0.50;;;17.60;99.90;;;;;;5052110;28;20046;-90
2022/09/09 07:43:46;;;;;;;0.40;0.40;;;17.90;99.90;;;;;;5051415;28;20289;-88
2022/09/09 07:46:13;;;;;;;0.40;0.40;;;18.10;99.90;;;;;;5052047;28;20086;-84
2022/09/09 07:48:44;;;;;;;0.40;0.40;;;18.00;99.90;;;;;;5069022;28;20059;-82
2022/09/09 07:51:19;;;;;;;0.40;0.40;;;17.90;99.90;;;;;;5066731;28;20063;-82
2022/09/09 07:53:46;;;;;;;0.40;0.40;;;18.00;99.90;;;;;;5087126;28;20040;-88
2022/09/09 07:56:17;;;;;;;0.50;0.50;;;18.10;99.90;;;;;;5072844;28;20050;-84
2022/09/09 07:58:45;;;;;;;0.40;0.40;;;18.10;99.90;;;;;;5068651;28;20048;-82
2022/09/09 08:01:19;;;;;;;0.40;0.40;;;18.10;99.90;;;;;;5084291;28;21023;-85
2022/09/09 08:03:46;;;;;;;0.50;0.50;;;17.80;99.90;;;;;;5043981;28;20056;-85
2022/09/09 08:06:13;;;;;;;0.40;0.40;;;17.90;99.90;;;;;;5057110;28;20048;-84
2022/09/09 08:08:41;;;;;;;0.40;0.40;;;18.10;99.90;;;;;;5055963;28;20437;-85
2022/09/09 08:11:15;;;;;;;0.40;0.40;;;18.10;99.90;;;;;;5077556;28;20043;-91
2022/09/09 08:13:42;;;;;;;0.40;0.40;;;18.00;99.90;;;;;;5051829;28;20387;-87
2022/09/09 08:16:11;;;;;;;0.50;0.50;;;18.00;99.90;;;;;;5067884;28;20052;-88
2022/09/09 08:18:37;;;;;;;0.40;0.40;;;18.00;99.90;;;;;;5038913;28;20039;-85
2022/09/09 08:21:12;;;;;;;0.40;0.40;;;18.00;99.90;;;;;;5066159;28;20394;-84
2022/09/09 08:23:42;;;;;;;0.45;0.45;;;18.10;99.90;;;;;;5066228;28;20507;-83
2022/09/09 08:26:16;;;;;;;0.40;0.40;;;18.20;99.90;;;;;;5071517;28;20290;-83
2022/09/09 08:28:43;;;;;;;0.40;0.40;;;18.20;99.90;;;;;;5063261;28;20048;-84
2022/09/09 08:31:16;;;;;;;0.40;0.40;;;18.10;99.90;;;;;;5065660;28;20043;-85
2022/09/09 08:33:45;;;;;;;0.40;0.40;;;18.10;99.90;;;;;;5067372;28;20635;-84
2022/09/09 08:36:13;;;;;;;0.40;0.40;;;18.20;99.90;;;;;;5085241;28;20146;-84
2022/09/09 08:38:38;;;;;;;0.40;0.40;;;18.10;99.90;;;;;;5080064;28;20055;-86
2022/09/09 08:41:18;;;;;;;0.40;0.40;;;18.20;99.90;;;;;;5065815;28;20043;-84
2022/09/09 08:43:47;;;;;;;0.50;0.50;;;18.20;99.90;;;;;;5050197;28;20460;-87
2022/09/09 08:46:39;;;;;;;0.40;0.40;;;18.10;99.90;;;;;;5050317;28;20096;-83
2022/09/09 08:49:10;;;;;;;0.40;0.40;;;18.20;99.90;;;;;;5081209;28;20027;-84
2022/09/09 08:51:36;;;;;;;0.40;0.40;;;18.30;99.90;;;;;;5086444;28;20044;-87
2022/09/09 08:54:04;;;;;;;0.40;0.40;;;18.30;99.90;;;;;;5066920;28;20095;-84
2022/09/09 08:56:32;;;;;;;0.38;0.38;;;18.30;99.90;;;;;;5067940;28;20047;-85
2022/09/09 08:59:02;;;;;;;0.50;0.50;;;18.50;99.90;;;;;;5082491;28;20073;-82
2022/09/09 09:01:46;;;;;;;0.40;0.40;;;18.70;99.90;;;;;;5049710;28;20079;-82
2022/09/09 09:04:39;;;;;;;0.40;0.40;;;18.80;99.90;;;;;;5081862;28;20036;-82
2022/09/09 09:07:04;;;;;;;0.40;0.40;;;18.80;99.90;;;;;;5054847;28;20052;-84
2022/09/09 09:09:30;;;;;;;0.40;0.40;;;19.10;99.90;;;;;;5064411;28;20059;-84
2022/09/09 09:12:01;;;;;;;0.40;0.40;;;19.10;99.90;;;;;;5066800;28;20063;-81
2022/09/09 09:14:30;;;;;;;0.40;0.40;;;19.30;99.90;;;;;;5067513;28;20051;-83
2022/09/09 09:17:03;;;;;;;0.40;0.40;;;19.30;99.90;;;;;;5047747;28;20046;-86
2022/09/09 09:19:32;;;;;;;0.40;0.40;;;19.30;99.90;;;;;;5064462;28;20051;-84
2022/09/09 09:22:15;;;;;;;0.40;0.40;;;19.50;99.90;;;;;;5060429;28;20052;-80
2022/09/09 09:25:10;;;;;;;0.40;0.40;;;19.30;99.90;;;;;;5064002;28;20595;-84
2022/09/09 09:27:39;;;;;;;0.40;0.40;;;19.30;99.90;;;;;;5048929;28;20048;-90
2022/09/09 09:30:20;;;;;;;0.40;0.40;;;19.50;99.90;;;;;;5082533;28;20039;-84
2022/09/09 09:33:15;;;;;;;0.40;0.40;;;19.50;99.90;;;;;;5066699;28;20079;-84
2022/09/09 09:35:40;;;;;;;0.40;0.40;;;19.70;99.90;;;;;;5047143;28;20059;-83
2022/09/09 09:38:18;;;;;;;0.40;0.40;;;19.70;99.90;;;;;;5082231;28;20044;-83
2022/09/09 09:40:52;;;;;;;0.50;0.50;;;19.90;99.90;;;;;;5084552;28;20058;-84
2022/09/09 09:43:36;;;;;;;0.40;0.40;;;20.00;99.90;;;;;;5064885;28;20974;-84
2022/09/09 09:46:17;;;;;;;0.30;0.30;;;19.70;99.90;;;;;;5065738;28;20054;-84
2022/09/09 09:48:45;;;;;;;0.30;0.30;;;19.70;99.90;;;;;;5081577;28;20199;-83
2022/09/09 09:51:15;;;;;;;0.40;0.40;;;19.60;99.90;;;;;;5082762;28;20044;-85
2022/09/09 09:53:41;;;;;;;0.40;0.40;;;19.80;99.90;;;;;;5064890;28;20040;-83
2022/09/09 09:56:10;;;;;;;0.40;0.40;;;19.70;99.90;;;;;;5038484;28;20075;-83
2022/09/09 09:58:45;;;;;;;0.40;0.40;;;19.90;99.90;;;;;;5051561;28;20048;-85
2022/09/09 10:01:29;;;;;;;0.30;0.30;;;20.00;99.90;;;;;;5083289;28;20071;-84
2022/09/09 10:04:03;;;;;;;0.40;0.40;;;20.60;99.90;;;;;;5065919;28;20047;-86
2022/09/09 10:06:37;;;;;;;0.40;0.40;;;20.70;99.90;;;;;;5055154;28;20055;-86
2022/09/09 10:09:25;;;;;;;0.40;0.40;;;20.50;99.90;;;;;;5061225;28;20888;-79
2022/09/09 10:12:22;;;;;;;0.40;0.40;;;20.60;99.90;;;;;;5080720;28;20511;-83
2022/09/09 10:14:50;;;;;;;0.30;0.30;;;21.00;99.90;;;;;;5066645;28;20059;-82
2022/09/09 10:17:19;;;;;;;0.38;0.38;;;20.60;99.90;;;;;;5065256;28;20492;-81
2022/09/09 10:20:12;;;;;;;0.65;0.65;;;20.30;99.90;;;;;;5083400;28;20473;-82
2022/09/09 10:22:46;;;;;;;0.40;0.40;;;20.60;99.90;;;;;;5035902;28;20059;-83
2022/09/09 10:25:31;;;;;;;0.40;0.40;;;20.70;99.90;;;;;;5088255;28;20129;-84
2022/09/09 10:28:15;;;;;;;0.40;0.40;;;20.80;99.90;;;;;;5065218;28;20054;-84
2022/09/09 10:30:53;;;;;;;0.40;0.40;;;21.30;99.90;;;;;;5068713;28;20036;-85
2022/09/09 10:33:32;;;;;;;0.40;0.40;;;21.10;99.90;;;;;;5068225;28;20123;-84
2022/09/09 10:36:06;;;;;;;0.40;0.40;;;21.50;99.90;;;;;;5069051;28;20155;-84
2022/09/09 10:38:46;;;;;;;0.40;0.40;;;21.80;99.90;;;;;;5074846;28;20055;-85
2022/09/09 10:41:44;;;;;;;0.40;0.40;;;21.90;99.90;;;;;;5028175;28;20962;-81
2022/09/09 10:44:34;;;;;;;0.30;0.30;;;21.80;99.90;;;;;;5026479;28;20052;-83
2022/09/09 10:47:18;;;;;;;0.40;0.40;;;21.90;99.90;;;;;;5034303;28;20056;-85
2022/09/09 10:50:12;;;;;;;;;;;21.40;99.90;;;;;;5054842;28;20052;-84
2022/09/09 10:52:50;;;;;;;0.40;0.40;;;21.00;99.90;;;;;;5051524;28;19928;-83
2022/09/09 10:55:25;;;;;;;0.40;0.40;;;20.80;99.90;;;;;;5049716;28;20041;-84
2022/09/09 10:57:53;;;;;;;0.30;0.30;;;20.70;99.90;;;;;;5005504;28;20048;-87
2022/09/09 11:00:42;;;;;;;0.40;0.40;;;20.50;99.90;;;;;;5031647;28;20767;-82
2022/09/09 11:03:24;;;;;;;0.40;0.40;;;20.90;99.90;;;;;;5048614;28;20051;-82
2022/09/09 11:05:56;;;;;;;0.40;0.40;;;21.90;99.90;;;;;;5031204;28;20689;-83
2022/09/09 11:08:26;;;;;;;0.30;0.30;;;22.50;99.90;;;;;;5048107;28;20044;-84
2022/09/09 11:11:17;;;;;;;0.40;0.40;;;22.10;99.90;;;;;;5031989;28;20044;-84
2022/09/09 11:13:54;;;;;;;0.40;0.40;;;22.30;99.90;;;;;;5033711;28;20067;-84
2022/09/09 11:16:33;;;;;;;0.30;0.30;;;22.20;99.90;;;;;;5029264;28;20138;-85
2022/09/09 11:19:10;;;;;;;0.40;0.40;;;21.80;99.90;;;;;;5029233;28;20055;-83
2022/09/09 11:21:42;;;;;;;0.40;0.40;;;22.00;99.90;;;;;;5032956;28;20063;-86
2022/09/09 11:24:19;;;;;;;0.38;0.38;;;22.10;99.90;;;;;;5029822;28;20301;-80
2022/09/09 11:26:54;;;;;;;0.40;0.40;;;22.10;99.90;;;;;;5030633;28;20044;-86
2022/09/09 11:29:44;;;;;;;0.32;0.32;;;21.80;99.90;;;;;;5031864;28;20094;-84
2022/09/09 11:32:40;;;;;;;0.40;0.40;;;21.70;99.90;;;;;;5032645;28;20048;-85
2022/09/09 11:35:30;;;;;;;0.40;0.40;;;22.00;99.90;;;;;;5028154;28;20458;-83
2022/09/09 11:38:07;;;;;;;0.30;0.30;;;21.60;99.90;;;;;;5031294;28;21033;-83
2022/09/09 11:40:34;;;;;;;0.40;0.40;;;21.80;99.90;;;;;;5014132;28;20793;-83
2022/09/09 11:43:15;;;;;;;0.40;0.40;;;21.80;99.90;;;;;;5048633;28;20056;-79
2022/09/09 11:45:42;;;;;;;0.40;0.40;;;21.70;99.90;;;;;;5030455;28;20174;-85
2022/09/09 11:48:36;;;;;;;0.30;0.30;;;21.40;99.90;;;;;;5034729;28;20143;-81
2022/09/09 11:51:25;;;;;;;0.40;0.40;;;21.40;99.90;;;;;;5015155;28;20101;-82
2022/09/09 11:54:01;;;;;;;0.40;0.40;;;21.40;99.90;;;;;;5037564;28;20592;-81
2022/09/09 11:56:34;;;;;;;0.40;0.40;;;21.40;99.90;;;;;;5035211;28;20036;-82
2022/09/09 11:59:19;;;;;;;0.30;0.30;;;21.60;99.90;;;;;;5034051;28;20087;-82
2022/09/09 12:01:49;;;;;;;0.40;0.40;;;22.00;99.90;;;;;;5034224;28;20075;-85
2022/09/09 12:04:24;;;;;;;0.40;0.40;;;22.10;99.90;;;;;;5016192;28;20036;-81
2022/09/09 12:07:24;;;;;;;0.40;0.40;;;21.90;99.90;;;;;;5038157;28;20032;-83
2022/09/09 12:10:02;;;;;;;0.35;0.35;;;21.70;99.90;;;;;;5029152;28;20200;-82
2022/09/09 12:12:33;;;;;;;0.30;0.30;;;21.60;99.90;;;;;;5016326;28;20090;-80
2022/09/09 12:15:17;;;;;;;0.40;0.40;;;21.40;99.90;;;;;;5040694;28;20155;-82
2022/09/09 12:17:45;;;;;;;0.40;0.40;;;21.10;99.90;;;;;;5045331;28;20045;-80
2022/09/09 12:20:29;;;;;;;0.40;0.40;;;21.00;99.90;;;;;;5048638;28;20048;-82
2022/09/09 12:23:49;;;;;;;0.40;0.40;;;20.80;99.90;;;;;;5027963;28;21382;-82
2022/09/09 12:26:33;;;;;;;0.40;0.40;;;20.80;99.90;;;;;;4963554;28;20077;-81
2022/09/09 12:29:04;;;;;;;;;;;20.60;99.90;;;;;;5046594;28;20085;-83
2022/09/09 12:31:42;;;;;;;0.40;0.40;;;20.50;99.90;;;;;;5048314;28;20018;-83
2022/09/09 12:34:21;;;;;;;0.30;0.30;;;20.60;99.90;;;;;;5028835;28;20404;-83
2022/09/09 12:36:55;;;;;;;0.40;0.40;;;20.80;99.90;;;;;;5025649;28;20804;-82
2022/09/09 12:39:45;;;;;;;0.40;0.40;;;21.30;99.90;;;;;;5050889;28;20140;-82
2022/09/09 12:42:19;;;;;;;0.40;0.40;;;21.40;99.90;;;;;;5049507;28;20063;-80
2022/09/09 12:44:58;;;;;;;;;;;20.90;99.90;;;;;;5071954;28;20047;-82
2022/09/09 12:47:47;;;;;;;0.40;0.40;;;20.90;99.90;;;;;;5050044;28;19919;-83
2022/09/09 12:50:26;;;;;;;0.40;0.40;;;20.90;99.90;;;;;;5033993;28;20055;-83
2022/09/09 12:52:58;;;;;;;0.40;0.40;;;20.70;99.90;;;;;;5052854;28;20108;-84
2022/09/09 12:55:29;;;;;;;0.40;0.40;;;20.50;99.90;;;;;;5071748;28;20048;-81
2022/09/09 12:57:59;;;;;;;0.40;0.40;;;20.30;99.90;;;;;;5069831;28;20094;-82
2022/09/09 13:00:25;;;;;;;0.40;0.40;;;20.10;99.90;;;;;;5069947;28;20548;-84
2022/09/09 13:02:52;;;;;;;0.40;0.40;;;19.70;99.90;;;;;;5069268;28;20055;-83
2022/09/09 13:05:21;;;;;;;0.40;0.40;;;19.30;99.90;;;;;;5051968;28;20048;-82
2022/09/09 13:07:48;;;;;;;0.40;0.40;;;19.10;99.90;;;;;;5052525;28;20047;-85
2022/09/09 13:10:19;;;;;;;0.40;0.40;;;19.20;99.90;;;;;;5053984;28;20039;-85
2022/09/09 13:12:45;;;;;;;0.40;0.40;;;19.30;99.90;;;;;;5055427;28;20545;-84
2022/09/09 13:15:20;;;;;;;0.40;0.40;;;19.50;99.90;;;;;;5052223;28;20039;-92
2022/09/09 13:18:12;;;;;;;0.40;0.40;;;19.70;99.90;;;;;;5053498;28;20560;-84
2022/09/09 13:20:38;;;;;;;0.40;0.40;;;20.10;99.90;;;;;;5052918;28;20788;-83
2022/09/09 13:23:03;;;;;;;0.40;0.40;;;20.30;99.90;;;;;;5047308;28;20052;-83